sensor_id;sensor_type;location;lat;lon;timestamp;temperature;humidity
41756;DHT22;27435;48.480;9.258;2023-05-07T00:02:14;14.80;94.70
41756;DHT22;27435;48.480;9.258;2023-05-07T00:04:39;14.70;95.30
41756;DHT22;27435;48.480;9.258;2023-05-07T00:07:05;14.70;94.80
41756;DHT22;27435;48.480;9.258;2023-05-07T00:09:31;14.60;94.40
41756;DHT22;27435;48.480;9.258;2023-05-07T00:11:56;14.60;95.00
41756;DHT22;27435;48.480;9.258;2023-05-07T00:14:22;14.60;95.20
41756;DHT22;27435;48.480;9.258;2023-05-07T00:16:47;14.70;95.20
41756;DHT22;27435;48.480;9.258;2023-05-07T00:19:13;14.60;95.20
41756;DHT22;27435;48.480;9.258;2023-05-07T00:21:39;14.60;95.90
41756;DHT22;27435;48.480;9.258;2023-05-07T00:24:04;14.70;94.60
41756;DHT22;27435;48.480;9.258;2023-05-07T00:26:30;14.70;94.00
41756;DHT22;27435;48.480;9.258;2023-05-07T00:28:56;14.80;93.40
41756;DHT22;27435;48.480;9.258;2023-05-07T00:31:21;14.90;93.60
41756;DHT22;27435;48.480;9.258;2023-05-07T00:33:47;15.00;93.10
41756;DHT22;27435;48.480;9.258;2023-05-07T00:36:12;14.90;93.30
41756;DHT22;27435;48.480;9.258;2023-05-07T00:38:38;14.80;94.30
41756;DHT22;27435;48.480;9.258;2023-05-07T00:41:04;14.70;95.20
41756;DHT22;27435;48.480;9.258;2023-05-07T00:43:30;14.70;94.30
41756;DHT22;27435;48.480;9.258;2023-05-07T00:45:56;14.90;93.80
41756;DHT22;27435;48.480;9.258;2023-05-07T00:48:21;14.90;93.90
41756;DHT22;27435;48.480;9.258;2023-05-07T00:50:49;14.80;94.60
41756;DHT22;27435;48.480;9.258;2023-05-07T00:53:15;14.60;95.20
41756;DHT22;27435;48.480;9.258;2023-05-07T00:55:41;14.50;95.70
41756;DHT22;27435;48.480;9.258;2023-05-07T00:58:07;14.50;95.80
41756;DHT22;27435;48.480;9.258;2023-05-07T01:00:33;14.50;96.50
41756;DHT22;27435;48.480;9.258;2023-05-07T01:02:59;14.40;97.00
41756;DHT22;27435;48.480;9.258;2023-05-07T01:05:26;14.40;97.20
41756;DHT22;27435;48.480;9.258;2023-05-07T01:07:53;14.40;96.90
41756;DHT22;27435;48.480;9.258;2023-05-07T01:10:20;14.40;97.10
41756;DHT22;27435;48.480;9.258;2023-05-07T01:12:47;14.40;96.70
41756;DHT22;27435;48.480;9.258;2023-05-07T01:15:13;14.40;97.10
41756;DHT22;27435;48.480;9.258;2023-05-07T01:17:41;14.30;97.10
41756;DHT22;27435;48.480;9.258;2023-05-07T01:20:07;14.40;97.30
41756;DHT22;27435;48.480;9.258;2023-05-07T01:22:37;14.40;97.30
41756;DHT22;27435;48.480;9.258;2023-05-07T01:25:04;14.30;97.60
41756;DHT22;27435;48.480;9.258;2023-05-07T01:27:30;14.20;98.20
41756;DHT22;27435;48.480;9.258;2023-05-07T01:29:56;14.30;98.30
41756;DHT22;27435;48.480;9.258;2023-05-07T01:34:57;14.20;99.00
41756;DHT22;27435;48.480;9.258;2023-05-07T01:37:25;14.10;99.00
41756;DHT22;27435;48.480;9.258;2023-05-07T01:39:51;14.00;99.00
41756;DHT22;27435;48.480;9.258;2023-05-07T01:42:17;14.00;99.00
41756;DHT22;27435;48.480;9.258;2023-05-07T01:44:43;14.10;99.00
41756;DHT22;27435;48.480;9.258;2023-05-07T01:47:09;14.20;99.00
41756;DHT22;27435;48.480;9.258;2023-05-07T01:49:34;14.10;99.00
41756;DHT22;27435;48.480;9.258;2023-05-07T01:52:00;14.20;99.00
41756;DHT22;27435;48.480;9.258;2023-05-07T01:54:26;14.10;99.00
41756;DHT22;27435;48.480;9.258;2023-05-07T01:56:59;14.10;99.00
41756;DHT22;27435;48.480;9.258;2023-05-07T01:59:25;14.20;99.00
41756;DHT22;27435;48.480;9.258;2023-05-07T02:01:51;14.30;99.00
41756;DHT22;27435;48.480;9.258;2023-05-07T02:04:17;14.30;99.00
41756;DHT22;27435;48.480;9.258;2023-05-07T02:06:43;14.30;99.00
41756;DHT22;27435;48.480;9.258;2023-05-07T02:09:08;14.30;99.00
41756;DHT22;27435;48.480;9.258;2023-05-07T02:11:34;14.40;99.00
41756;DHT22;27435;48.480;9.258;2023-05-07T02:14:00;14.50;99.00
41756;DHT22;27435;48.480;9.258;2023-05-07T02:16:25;14.50;99.00
41756;DHT22;27435;48.480;9.258;2023-05-07T02:18:51;14.30;99.00
41756;DHT22;27435;48.480;9.258;2023-05-07T02:21:17;14.10;99.00
41756;DHT22;27435;48.480;9.258;2023-05-07T02:23:42;13.90;99.00
41756;DHT22;27435;48.480;9.258;2023-05-07T02:26:08;13.80;99.00
41756;DHT22;27435;48.480;9.258;2023-05-07T02:28:34;13.90;99.00
41756;DHT22;27435;48.480;9.258;2023-05-07T02:31:03;13.90;99.00
41756;DHT22;27435;48.480;9.258;2023-05-07T02:33:29;14.00;99.00
41756;DHT22;27435;48.480;9.258;2023-05-07T02:35:55;14.00;99.00
41756;DHT22;27435;48.480;9.258;2023-05-07T02:38:21;14.20;99.00
41756;DHT22;27435;48.480;9.258;2023-05-07T02:40:47;14.20;99.00
41756;DHT22;27435;48.480;9.258;2023-05-07T02:43:12;14.20;99.00
41756;DHT22;27435;48.480;9.258;2023-05-07T02:45:38;14.20;99.00
41756;DHT22;27435;48.480;9.258;2023-05-07T02:48:04;14.20;99.00
41756;DHT22;27435;48.480;9.258;2023-05-07T02:50:31;14.20;99.00
41756;DHT22;27435;48.480;9.258;2023-05-07T02:52:58;13.90;99.00
41756;DHT22;27435;48.480;9.258;2023-05-07T02:55:23;13.80;99.00
41756;DHT22;27435;48.480;9.258;2023-05-07T02:57:49;13.60;99.00
41756;DHT22;27435;48.480;9.258;2023-05-07T03:00:17;13.50;99.00
41756;DHT22;27435;48.480;9.258;2023-05-07T03:02:43;13.30;99.00
41756;DHT22;27435;48.480;9.258;2023-05-07T03:05:09;13.40;99.00
41756;DHT22;27435;48.480;9.258;2023-05-07T03:07:35;13.20;99.00
41756;DHT22;27435;48.480;9.258;2023-05-07T03:10:02;13.20;99.00
41756;DHT22;27435;48.480;9.258;2023-05-07T03:12:27;13.10;99.00
41756;DHT22;27435;48.480;9.258;2023-05-07T03:14:53;12.90;99.00
41756;DHT22;27435;48.480;9.258;2023-05-07T03:17:18;12.90;99.00
41756;DHT22;27435;48.480;9.258;2023-05-07T03:19:44;12.80;99.00
41756;DHT22;27435;48.480;9.258;2023-05-07T03:22:10;12.60;99.00
41756;DHT22;27435;48.480;9.258;2023-05-07T03:24:35;12.50;99.00
41756;DHT22;27435;48.480;9.258;2023-05-07T03:27:01;12.50;99.00
41756;DHT22;27435;48.480;9.258;2023-05-07T03:29:26;12.40;99.00
41756;DHT22;27435;48.480;9.258;2023-05-07T03:31:52;12.20;99.00
41756;DHT22;27435;48.480;9.258;2023-05-07T03:34:18;12.10;99.00
41756;DHT22;27435;48.480;9.258;2023-05-07T03:36:50;12.10;99.00
41756;DHT22;27435;48.480;9.258;2023-05-07T03:39:16;12.00;99.00
41756;DHT22;27435;48.480;9.258;2023-05-07T03:41:41;12.00;99.00
41756;DHT22;27435;48.480;9.258;2023-05-07T03:44:07;11.80;99.00
41756;DHT22;27435;48.480;9.258;2023-05-07T03:46:33;11.80;99.00
41756;DHT22;27435;48.480;9.258;2023-05-07T03:48:59;11.80;99.00
41756;DHT22;27435;48.480;9.258;2023-05-07T03:51:25;11.70;99.00
41756;DHT22;27435;48.480;9.258;2023-05-07T03:53:51;11.50;99.00
41756;DHT22;27435;48.480;9.258;2023-05-07T03:56:20;11.40;99.00
41756;DHT22;27435;48.480;9.258;2023-05-07T03:58:47;11.30;99.00
41756;DHT22;27435;48.480;9.258;2023-05-07T04:01:13;11.30;99.00
41756;DHT22;27435;48.480;9.258;2023-05-07T04:03:38;11.10;99.00
41756;DHT22;27435;48.480;9.258;2023-05-07T04:06:04;11.20;99.00
41756;DHT22;27435;48.480;9.258;2023-05-07T04:08:29;11.30;99.00
41756;DHT22;27435;48.480;9.258;2023-05-07T04:10:56;11.20;99.00
41756;DHT22;27435;48.480;9.258;2023-05-07T04:13:22;11.20;99.00
41756;DHT22;27435;48.480;9.258;2023-05-07T04:15:48;11.20;99.00
41756;DHT22;27435;48.480;9.258;2023-05-07T04:18:14;11.30;99.00
41756;DHT22;27435;48.480;9.258;2023-05-07T04:20:41;11.40;99.00
41756;DHT22;27435;48.480;9.258;2023-05-07T04:23:07;11.40;99.00
41756;DHT22;27435;48.480;9.258;2023-05-07T04:25:33;11.40;99.00
41756;DHT22;27435;48.480;9.258;2023-05-07T04:27:59;11.40;99.00
41756;DHT22;27435;48.480;9.258;2023-05-07T04:30:24;11.30;99.00
41756;DHT22;27435;48.480;9.258;2023-05-07T04:32:50;11.20;99.00
41756;DHT22;27435;48.480;9.258;2023-05-07T04:35:16;11.20;99.00
41756;DHT22;27435;48.480;9.258;2023-05-07T04:37:42;11.10;99.00
41756;DHT22;27435;48.480;9.258;2023-05-07T04:40:08;11.10;99.00
41756;DHT22;27435;48.480;9.258;2023-05-07T04:42:34;11.40;99.00
41756;DHT22;27435;48.480;9.258;2023-05-07T04:44:59;11.50;99.00
41756;DHT22;27435;48.480;9.258;2023-05-07T04:47:25;11.40;99.00
41756;DHT22;27435;48.480;9.258;2023-05-07T04:49:51;11.30;99.00
41756;DHT22;27435;48.480;9.258;2023-05-07T04:52:16;11.40;99.00
41756;DHT22;27435;48.480;9.258;2023-05-07T04:54:42;11.40;99.00
41756;DHT22;27435;48.480;9.258;2023-05-07T04:57:07;11.40;99.00
41756;DHT22;27435;48.480;9.258;2023-05-07T04:59:33;11.40;99.00
41756;DHT22;27435;48.480;9.258;2023-05-07T05:01:59;11.40;99.00
41756;DHT22;27435;48.480;9.258;2023-05-07T05:04:24;11.50;99.00
41756;DHT22;27435;48.480;9.258;2023-05-07T05:06:51;11.70;99.00
41756;DHT22;27435;48.480;9.258;2023-05-07T05:09:16;11.80;99.00
41756;DHT22;27435;48.480;9.258;2023-05-07T05:11:42;11.80;99.00
41756;DHT22;27435;48.480;9.258;2023-05-07T05:14:07;11.90;99.00
41756;DHT22;27435;48.480;9.258;2023-05-07T05:16:33;11.70;99.00
41756;DHT22;27435;48.480;9.258;2023-05-07T05:18:59;11.80;99.00
41756;DHT22;27435;48.480;9.258;2023-05-07T05:21:25;11.90;99.00
41756;DHT22;27435;48.480;9.258;2023-05-07T05:23:50;12.20;99.00
41756;DHT22;27435;48.480;9.258;2023-05-07T05:26:17;12.40;99.00
41756;DHT22;27435;48.480;9.258;2023-05-07T05:28:43;12.80;99.00
41756;DHT22;27435;48.480;9.258;2023-05-07T05:31:08;13.00;99.00
41756;DHT22;27435;48.480;9.258;2023-05-07T05:33:34;13.00;99.00
41756;DHT22;27435;48.480;9.258;2023-05-07T05:36:00;13.40;99.00
41756;DHT22;27435;48.480;9.258;2023-05-07T05:38:26;13.50;99.00
41756;DHT22;27435;48.480;9.258;2023-05-07T05:40:52;13.60;99.00
41756;DHT22;27435;48.480;9.258;2023-05-07T05:43:17;13.70;99.00
41756;DHT22;27435;48.480;9.258;2023-05-07T05:45:43;14.00;99.00
41756;DHT22;27435;48.480;9.258;2023-05-07T05:48:08;14.40;99.00
41756;DHT22;27435;48.480;9.258;2023-05-07T05:50:34;14.60;99.00
41756;DHT22;27435;48.480;9.258;2023-05-07T05:53:03;14.80;99.00
41756;DHT22;27435;48.480;9.258;2023-05-07T05:55:29;14.90;99.00
41756;DHT22;27435;48.480;9.258;2023-05-07T05:57:54;15.20;99.00
41756;DHT22;27435;48.480;9.258;2023-05-07T06:00:20;15.50;99.00
41756;DHT22;27435;48.480;9.258;2023-05-07T06:02:48;15.80;99.00
41756;DHT22;27435;48.480;9.258;2023-05-07T06:05:14;16.30;99.00
41756;DHT22;27435;48.480;9.258;2023-05-07T06:07:40;16.50;99.00
41756;DHT22;27435;48.480;9.258;2023-05-07T06:10:06;16.90;98.50
41756;DHT22;27435;48.480;9.258;2023-05-07T06:12:32;17.20;98.30
41756;DHT22;27435;48.480;9.258;2023-05-07T06:14:57;17.50;96.40
41756;DHT22;27435;48.480;9.258;2023-05-07T06:17:23;17.50;96.10
41756;DHT22;27435;48.480;9.258;2023-05-07T06:19:49;17.90;95.30
41756;DHT22;27435;48.480;9.258;2023-05-07T06:22:14;18.10;92.80
41756;DHT22;27435;48.480;9.258;2023-05-07T06:24:40;18.10;93.90
41756;DHT22;27435;48.480;9.258;2023-05-07T06:27:06;18.20;92.70
41756;DHT22;27435;48.480;9.258;2023-05-07T06:29:31;18.60;91.40
41756;DHT22;27435;48.480;9.258;2023-05-07T06:32:15;18.60;90.50
41756;DHT22;27435;48.480;9.258;2023-05-07T06:34:42;18.40;91.20
41756;DHT22;27435;48.480;9.258;2023-05-07T06:37:08;18.90;89.20
41756;DHT22;27435;48.480;9.258;2023-05-07T06:39:33;19.20;89.00
41756;DHT22;27435;48.480;9.258;2023-05-07T06:42:00;19.60;86.40
41756;DHT22;27435;48.480;9.258;2023-05-07T06:44:26;19.80;85.10
41756;DHT22;27435;48.480;9.258;2023-05-07T06:46:51;19.90;84.40
41756;DHT22;27435;48.480;9.258;2023-05-07T06:49:17;19.50;84.70
41756;DHT22;27435;48.480;9.258;2023-05-07T06:51:42;19.50;85.50
41756;DHT22;27435;48.480;9.258;2023-05-07T06:54:08;19.70;84.70
41756;DHT22;27435;48.480;9.258;2023-05-07T06:56:34;19.90;83.80
41756;DHT22;27435;48.480;9.258;2023-05-07T06:59:01;20.10;83.50
41756;DHT22;27435;48.480;9.258;2023-05-07T07:01:27;20.10;82.50
41756;DHT22;27435;48.480;9.258;2023-05-07T07:03:53;20.10;83.10
41756;DHT22;27435;48.480;9.258;2023-05-07T07:06:18;19.90;83.90
41756;DHT22;27435;48.480;9.258;2023-05-07T07:08:44;19.60;85.00
41756;DHT22;27435;48.480;9.258;2023-05-07T07:11:10;19.50;85.50
41756;DHT22;27435;48.480;9.258;2023-05-07T07:13:36;19.70;85.40
41756;DHT22;27435;48.480;9.258;2023-05-07T07:16:01;19.40;85.70
41756;DHT22;27435;48.480;9.258;2023-05-07T07:18:28;19.50;85.90
41756;DHT22;27435;48.480;9.258;2023-05-07T07:20:53;19.40;86.20
41756;DHT22;27435;48.480;9.258;2023-05-07T07:23:19;19.60;85.80
41756;DHT22;27435;48.480;9.258;2023-05-07T07:25:45;19.50;86.10
41756;DHT22;27435;48.480;9.258;2023-05-07T07:28:11;19.70;85.20
41756;DHT22;27435;48.480;9.258;2023-05-07T07:30:37;19.30;85.40
41756;DHT22;27435;48.480;9.258;2023-05-07T07:33:03;19.40;86.00
41756;DHT22;27435;48.480;9.258;2023-05-07T07:35:37;19.70;85.60
41756;DHT22;27435;48.480;9.258;2023-05-07T07:38:03;19.80;85.20
41756;DHT22;27435;48.480;9.258;2023-05-07T07:40:43;19.70;85.50
41756;DHT22;27435;48.480;9.258;2023-05-07T07:43:18;20.20;84.50
41756;DHT22;27435;48.480;9.258;2023-05-07T07:45:43;20.30;83.90
41756;DHT22;27435;48.480;9.258;2023-05-07T07:48:09;20.10;84.40
41756;DHT22;27435;48.480;9.258;2023-05-07T07:50:35;20.20;84.40
41756;DHT22;27435;48.480;9.258;2023-05-07T07:53:01;20.30;84.40
41756;DHT22;27435;48.480;9.258;2023-05-07T07:55:31;20.60;83.20
41756;DHT22;27435;48.480;9.258;2023-05-07T07:58:10;21.00;82.20
41756;DHT22;27435;48.480;9.258;2023-05-07T08:00:36;21.00;81.70
41756;DHT22;27435;48.480;9.258;2023-05-07T08:03:01;20.90;81.10
41756;DHT22;27435;48.480;9.258;2023-05-07T08:05:29;20.90;81.80
41756;DHT22;27435;48.480;9.258;2023-05-07T08:07:54;21.00;81.70
41756;DHT22;27435;48.480;9.258;2023-05-07T08:10:21;20.90;81.80
41756;DHT22;27435;48.480;9.258;2023-05-07T08:12:50;20.60;83.00
41756;DHT22;27435;48.480;9.258;2023-05-07T08:15:17;21.00;82.60
41756;DHT22;27435;48.480;9.258;2023-05-07T08:17:43;21.10;82.20
41756;DHT22;27435;48.480;9.258;2023-05-07T08:20:09;21.40;80.00
41756;DHT22;27435;48.480;9.258;2023-05-07T08:22:35;21.10;81.20
41756;DHT22;27435;48.480;9.258;2023-05-07T08:25:01;21.10;81.30
41756;DHT22;27435;48.480;9.258;2023-05-07T08:27:27;21.20;81.50
41756;DHT22;27435;48.480;9.258;2023-05-07T08:29:53;21.00;81.60
41756;DHT22;27435;48.480;9.258;2023-05-07T08:32:19;20.70;82.90
41756;DHT22;27435;48.480;9.258;2023-05-07T08:34:44;20.60;83.30
41756;DHT22;27435;48.480;9.258;2023-05-07T08:37:10;20.50;84.20
41756;DHT22;27435;48.480;9.258;2023-05-07T08:39:35;20.60;84.40
41756;DHT22;27435;48.480;9.258;2023-05-07T08:42:04;20.40;85.10
41756;DHT22;27435;48.480;9.258;2023-05-07T08:44:33;20.30;85.20
41756;DHT22;27435;48.480;9.258;2023-05-07T08:47:01;20.30;86.40
41756;DHT22;27435;48.480;9.258;2023-05-07T08:49:28;20.00;87.20
41756;DHT22;27435;48.480;9.258;2023-05-07T08:51:54;19.70;89.40
41756;DHT22;27435;48.480;9.258;2023-05-07T08:54:21;19.50;90.30
41756;DHT22;27435;48.480;9.258;2023-05-07T08:56:46;19.30;91.60
41756;DHT22;27435;48.480;9.258;2023-05-07T08:59:12;19.00;93.50
41756;DHT22;27435;48.480;9.258;2023-05-07T09:01:38;19.10;93.60
41756;DHT22;27435;48.480;9.258;2023-05-07T09:04:04;19.30;93.10
41756;DHT22;27435;48.480;9.258;2023-05-07T09:06:31;19.40;92.90
41756;DHT22;27435;48.480;9.258;2023-05-07T09:08:57;19.60;92.70
41756;DHT22;27435;48.480;9.258;2023-05-07T09:11:26;19.90;90.60
41756;DHT22;27435;48.480;9.258;2023-05-07T09:13:56;20.20;89.20
41756;DHT22;27435;48.480;9.258;2023-05-07T09:16:23;20.60;88.00
41756;DHT22;27435;48.480;9.258;2023-05-07T09:18:54;20.90;86.30
41756;DHT22;27435;48.480;9.258;2023-05-07T09:21:20;21.00;85.80
41756;DHT22;27435;48.480;9.258;2023-05-07T09:23:50;21.20;86.00
41756;DHT22;27435;48.480;9.258;2023-05-07T09:26:15;21.40;85.30
41756;DHT22;27435;48.480;9.258;2023-05-07T09:28:42;21.60;83.80
41756;DHT22;27435;48.480;9.258;2023-05-07T09:31:09;21.70;83.50
41756;DHT22;27435;48.480;9.258;2023-05-07T09:33:34;21.80;83.60
41756;DHT22;27435;48.480;9.258;2023-05-07T09:36:04;22.00;82.70
41756;DHT22;27435;48.480;9.258;2023-05-07T09:38:31;22.20;81.80
41756;DHT22;27435;48.480;9.258;2023-05-07T09:41:05;22.40;81.50
41756;DHT22;27435;48.480;9.258;2023-05-07T09:43:39;22.30;79.90
41756;DHT22;27435;48.480;9.258;2023-05-07T09:46:15;22.20;79.60
41756;DHT22;27435;48.480;9.258;2023-05-07T09:48:44;22.40;79.00
41756;DHT22;27435;48.480;9.258;2023-05-07T09:51:22;22.70;76.40
41756;DHT22;27435;48.480;9.258;2023-05-07T09:53:52;23.00;74.80
41756;DHT22;27435;48.480;9.258;2023-05-07T09:56:19;23.10;73.60
41756;DHT22;27435;48.480;9.258;2023-05-07T09:58:46;23.20;72.80
41756;DHT22;27435;48.480;9.258;2023-05-07T10:01:12;23.40;71.30
41756;DHT22;27435;48.480;9.258;2023-05-07T10:03:42;23.30;69.20
41756;DHT22;27435;48.480;9.258;2023-05-07T10:06:09;23.30;69.40
41756;DHT22;27435;48.480;9.258;2023-05-07T10:08:36;22.90;70.70
41756;DHT22;27435;48.480;9.258;2023-05-07T10:11:04;23.00;69.40
41756;DHT22;27435;48.480;9.258;2023-05-07T10:13:30;23.20;68.50
41756;DHT22;27435;48.480;9.258;2023-05-07T10:15:57;23.20;67.60
41756;DHT22;27435;48.480;9.258;2023-05-07T10:18:23;23.30;67.40
41756;DHT22;27435;48.480;9.258;2023-05-07T10:20:55;23.50;67.90
41756;DHT22;27435;48.480;9.258;2023-05-07T10:23:24;24.00;66.40
41756;DHT22;27435;48.480;9.258;2023-05-07T10:25:50;24.40;65.90
41756;DHT22;27435;48.480;9.258;2023-05-07T10:28:17;24.60;66.80
41756;DHT22;27435;48.480;9.258;2023-05-07T10:31:32;24.70;67.00
41756;DHT22;27435;48.480;9.258;2023-05-07T10:33:49;25.10;64.20
41756;DHT22;27435;48.480;9.258;2023-05-07T10:36:17;24.70;65.70
41756;DHT22;27435;48.480;9.258;2023-05-07T10:38:44;24.00;66.70
41756;DHT22;27435;48.480;9.258;2023-05-07T10:41:11;23.90;67.60
41756;DHT22;27435;48.480;9.258;2023-05-07T10:43:44;23.60;67.60
41756;DHT22;27435;48.480;9.258;2023-05-07T10:46:18;23.60;69.40
41756;DHT22;27435;48.480;9.258;2023-05-07T10:51:29;24.40;65.80
41756;DHT22;27435;48.480;9.258;2023-05-07T11:01:56;24.50;65.70
41756;DHT22;27435;48.480;9.258;2023-05-07T11:04:23;24.60;66.30
41756;DHT22;27435;48.480;9.258;2023-05-07T11:15:13;23.40;66.80
41756;DHT22;27435;48.480;9.258;2023-05-07T11:17:55;23.30;67.40
41756;DHT22;27435;48.480;9.258;2023-05-07T11:20:54;23.00;69.40
41756;DHT22;27435;48.480;9.258;2023-05-07T11:26:09;22.90;69.40
41756;DHT22;27435;48.480;9.258;2023-05-07T11:28:40;22.70;69.40
41756;DHT22;27435;48.480;9.258;2023-05-07T11:31:06;22.60;73.60
41756;DHT22;27435;48.480;9.258;2023-05-07T11:33:33;22.00;81.80
41756;DHT22;27435;48.480;9.258;2023-05-07T11:36:00;20.30;91.20
41756;DHT22;27435;48.480;9.258;2023-05-07T11:38:26;19.00;99.00
41756;DHT22;27435;48.480;9.258;2023-05-07T11:40:52;18.20;99.00
41756;DHT22;27435;48.480;9.258;2023-05-07T11:43:18;17.70;99.00
41756;DHT22;27435;48.480;9.258;2023-05-07T11:45:47;17.60;99.00
41756;DHT22;27435;48.480;9.258;2023-05-07T11:48:14;17.60;99.00
41756;DHT22;27435;48.480;9.258;2023-05-07T11:50:54;17.80;99.00
41756;DHT22;27435;48.480;9.258;2023-05-07T11:53:25;18.00;99.00
41756;DHT22;27435;48.480;9.258;2023-05-07T11:55:57;18.30;99.00
41756;DHT22;27435;48.480;9.258;2023-05-07T11:58:24;18.60;99.00
41756;DHT22;27435;48.480;9.258;2023-05-07T12:00:53;18.90;99.00
41756;DHT22;27435;48.480;9.258;2023-05-07T12:03:20;19.00;99.00
41756;DHT22;27435;48.480;9.258;2023-05-07T12:05:46;18.90;99.00
41756;DHT22;27435;48.480;9.258;2023-05-07T12:08:16;19.00;99.00
41756;DHT22;27435;48.480;9.258;2023-05-07T12:10:43;19.20;99.00
41756;DHT22;27435;48.480;9.258;2023-05-07T12:13:19;19.50;99.00
41756;DHT22;27435;48.480;9.258;2023-05-07T12:15:45;19.80;99.00
41756;DHT22;27435;48.480;9.258;2023-05-07T12:18:11;20.20;99.00
41756;DHT22;27435;48.480;9.258;2023-05-07T12:20:38;20.40;98.80
41756;DHT22;27435;48.480;9.258;2023-05-07T12:23:04;20.40;99.00
41756;DHT22;27435;48.480;9.258;2023-05-07T12:25:37;20.40;98.30
41756;DHT22;27435;48.480;9.258;2023-05-07T12:28:03;20.30;98.00
41756;DHT22;27435;48.480;9.258;2023-05-07T12:30:31;20.50;98.80
41756;DHT22;27435;48.480;9.258;2023-05-07T12:32:58;20.80;97.60
41756;DHT22;27435;48.480;9.258;2023-05-07T12:35:30;20.60;97.10
41756;DHT22;27435;48.480;9.258;2023-05-07T12:37:57;20.10;95.00
41756;DHT22;27435;48.480;9.258;2023-05-07T12:40:33;19.40;96.20
41756;DHT22;27435;48.480;9.258;2023-05-07T12:43:00;19.10;98.10
41756;DHT22;27435;48.480;9.258;2023-05-07T12:45:26;19.00;99.00
41756;DHT22;27435;48.480;9.258;2023-05-07T12:47:52;19.00;99.00
41756;DHT22;27435;48.480;9.258;2023-05-07T12:50:17;18.90;99.00
41756;DHT22;27435;48.480;9.258;2023-05-07T12:52:44;18.70;99.00
41756;DHT22;27435;48.480;9.258;2023-05-07T12:55:13;18.60;99.00
41756;DHT22;27435;48.480;9.258;2023-05-07T12:57:41;18.60;99.00
41756;DHT22;27435;48.480;9.258;2023-05-07T13:00:07;18.50;99.00
41756;DHT22;27435;48.480;9.258;2023-05-07T13:02:37;18.50;99.00
41756;DHT22;27435;48.480;9.258;2023-05-07T13:05:03;18.30;99.00
41756;DHT22;27435;48.480;9.258;2023-05-07T13:07:37;18.30;99.00
41756;DHT22;27435;48.480;9.258;2023-05-07T13:10:04;18.40;99.00
41756;DHT22;27435;48.480;9.258;2023-05-07T13:12:30;18.50;99.00
41756;DHT22;27435;48.480;9.258;2023-05-07T13:14:55;18.60;99.00
41756;DHT22;27435;48.480;9.258;2023-05-07T13:17:23;18.90;99.00
41756;DHT22;27435;48.480;9.258;2023-05-07T13:19:56;18.80;99.00
41756;DHT22;27435;48.480;9.258;2023-05-07T13:22:22;18.50;99.00
41756;DHT22;27435;48.480;9.258;2023-05-07T13:24:47;18.10;99.00
41756;DHT22;27435;48.480;9.258;2023-05-07T13:27:13;17.50;99.00
41756;DHT22;27435;48.480;9.258;2023-05-07T13:29:41;17.10;99.00
41756;DHT22;27435;48.480;9.258;2023-05-07T13:32:07;16.80;99.00
41756;DHT22;27435;48.480;9.258;2023-05-07T13:34:32;16.50;99.00
41756;DHT22;27435;48.480;9.258;2023-05-07T13:36:58;16.40;99.00
41756;DHT22;27435;48.480;9.258;2023-05-07T13:39:23;16.10;99.00
41756;DHT22;27435;48.480;9.258;2023-05-07T13:41:49;15.90;99.00
41756;DHT22;27435;48.480;9.258;2023-05-07T13:44:15;15.70;99.00
41756;DHT22;27435;48.480;9.258;2023-05-07T13:46:40;15.50;99.00
41756;DHT22;27435;48.480;9.258;2023-05-07T13:49:06;15.40;99.00
41756;DHT22;27435;48.480;9.258;2023-05-07T13:51:32;15.30;99.00
41756;DHT22;27435;48.480;9.258;2023-05-07T13:53:57;15.30;99.00
41756;DHT22;27435;48.480;9.258;2023-05-07T13:56:23;15.20;99.00
41756;DHT22;27435;48.480;9.258;2023-05-07T13:58:49;15.10;99.00
41756;DHT22;27435;48.480;9.258;2023-05-07T14:01:15;15.10;99.00
41756;DHT22;27435;48.480;9.258;2023-05-07T14:03:40;15.20;99.00
41756;DHT22;27435;48.480;9.258;2023-05-07T14:06:06;15.30;99.00
41756;DHT22;27435;48.480;9.258;2023-05-07T14:08:32;15.20;99.00
41756;DHT22;27435;48.480;9.258;2023-05-07T14:10:57;15.20;99.00
41756;DHT22;27435;48.480;9.258;2023-05-07T14:13:23;15.20;99.00
41756;DHT22;27435;48.480;9.258;2023-05-07T14:15:49;15.10;99.00
41756;DHT22;27435;48.480;9.258;2023-05-07T14:18:15;15.00;99.00
41756;DHT22;27435;48.480;9.258;2023-05-07T14:20:41;14.80;99.00
41756;DHT22;27435;48.480;9.258;2023-05-07T14:23:14;14.70;99.00
41756;DHT22;27435;48.480;9.258;2023-05-07T14:25:40;14.80;99.00
41756;DHT22;27435;48.480;9.258;2023-05-07T14:28:08;14.70;99.00
41756;DHT22;27435;48.480;9.258;2023-05-07T14:34:26;15.10;99.00
41756;DHT22;27435;48.480;9.258;2023-05-07T14:36:58;15.20;99.00
41756;DHT22;27435;48.480;9.258;2023-05-07T14:39:25;15.00;99.00
41756;DHT22;27435;48.480;9.258;2023-05-07T14:41:53;15.10;99.00
41756;DHT22;27435;48.480;9.258;2023-05-07T14:44:26;15.30;99.00
41756;DHT22;27435;48.480;9.258;2023-05-07T14:46:55;15.30;99.00
41756;DHT22;27435;48.480;9.258;2023-05-07T14:49:21;15.30;99.00
41756;DHT22;27435;48.480;9.258;2023-05-07T14:51:47;15.40;99.00
41756;DHT22;27435;48.480;9.258;2023-05-07T14:54:14;15.40;99.00
41756;DHT22;27435;48.480;9.258;2023-05-07T14:56:41;15.40;99.00
41756;DHT22;27435;48.480;9.258;2023-05-07T14:59:07;15.70;99.00
41756;DHT22;27435;48.480;9.258;2023-05-07T15:01:36;15.80;99.00
41756;DHT22;27435;48.480;9.258;2023-05-07T15:04:05;15.80;99.00
41756;DHT22;27435;48.480;9.258;2023-05-07T15:06:32;15.70;99.00
41756;DHT22;27435;48.480;9.258;2023-05-07T15:08:57;15.80;99.00
41756;DHT22;27435;48.480;9.258;2023-05-07T15:11:23;15.80;99.00
41756;DHT22;27435;48.480;9.258;2023-05-07T15:13:49;16.30;99.00
41756;DHT22;27435;48.480;9.258;2023-05-07T15:16:18;16.80;99.00
41756;DHT22;27435;48.480;9.258;2023-05-07T15:26:37;17.40;99.00
41756;DHT22;27435;48.480;9.258;2023-05-07T15:32:51;18.30;99.00
41756;DHT22;27435;48.480;9.258;2023-05-07T15:35:17;18.60;99.00
41756;DHT22;27435;48.480;9.258;2023-05-07T15:37:50;18.70;99.00
41756;DHT22;27435;48.480;9.258;2023-05-07T15:40:16;18.70;99.00
41756;DHT22;27435;48.480;9.258;2023-05-07T15:42:44;18.90;99.00
41756;DHT22;27435;48.480;9.258;2023-05-07T15:45:10;19.20;99.00
41756;DHT22;27435;48.480;9.258;2023-05-07T15:47:36;19.50;99.00
41756;DHT22;27435;48.480;9.258;2023-05-07T15:50:02;19.70;99.00
41756;DHT22;27435;48.480;9.258;2023-05-07T15:52:28;19.90;99.00
41756;DHT22;27435;48.480;9.258;2023-05-07T15:54:54;19.50;99.00
41756;DHT22;27435;48.480;9.258;2023-05-07T15:57:21;19.20;99.00
41756;DHT22;27435;48.480;9.258;2023-05-07T15:59:47;19.10;99.00
41756;DHT22;27435;48.480;9.258;2023-05-07T16:02:12;18.80;99.00
41756;DHT22;27435;48.480;9.258;2023-05-07T16:04:38;18.40;99.00
41756;DHT22;27435;48.480;9.258;2023-05-07T16:07:04;18.00;99.00
41756;DHT22;27435;48.480;9.258;2023-05-07T16:09:30;17.70;99.00